createdAt,value
2022-07-29T00:00:36.179Z,20.31
2022-07-29T00:03:03.750Z,20.44
2022-07-29T00:05:30.472Z,20.41
2022-07-29T00:07:57.058Z,20.32
2022-07-29T00:10:24.056Z,20.38
2022-07-29T00:12:50.622Z,20.32
2022-07-29T00:15:17.101Z,20.38
2022-07-29T00:17:43.667Z,20.38
2022-07-29T00:20:10.711Z,20.35
2022-07-29T00:22:40.670Z,20.38
2022-07-29T00:25:08.578Z,20.29
2022-07-29T00:27:36.629Z,20.32
2022-07-29T00:30:04.821Z,20.18
2022-07-29T00:32:31.459Z,20.21
2022-07-29T00:35:16.673Z,20.45
2022-07-29T00:37:43.343Z,20.35
2022-07-29T00:40:10.512Z,20.31
2022-07-29T00:42:48.324Z,20.32
2022-07-29T00:45:15.928Z,20.38
2022-07-29T00:47:42.503Z,20.26
2022-07-29T00:50:11.377Z,20.26
2022-07-29T00:52:40.625Z,20.28
2022-07-29T00:55:10.179Z,20.28
2022-07-29T00:57:37.561Z,20.21
2022-07-29T01:00:09.418Z,20.17
2022-07-29T01:02:36.185Z,20.20
2022-07-29T01:05:05.197Z,20.18
2022-07-29T01:07:34.664Z,20.15
2022-07-29T01:10:03.010Z,20.15
2022-07-29T01:12:34.569Z,20.46
2022-07-29T01:15:04.154Z,20.10
2022-07-29T01:17:37.307Z,20.01
2022-07-29T01:20:21.230Z,20.01
2022-07-29T01:23:03.557Z,20.05
2022-07-29T01:25:45.007Z,20.00
2022-07-29T01:28:30.258Z,19.88
2022-07-29T01:30:59.671Z,19.98
2022-07-29T01:33:46.210Z,19.87
2022-07-29T01:36:17.309Z,19.78
2022-07-29T01:38:49.503Z,19.76
2022-07-29T01:41:19.197Z,19.69
2022-07-29T01:43:54.612Z,19.69
2022-07-29T01:46:30.489Z,19.63
2022-07-29T01:49:12.375Z,19.66
2022-07-29T01:51:52.618Z,19.57
2022-07-29T01:54:43.927Z,19.62
2022-07-29T01:57:18.313Z,19.70
2022-07-29T01:59:47.491Z,19.67
2022-07-29T02:02:17.650Z,19.64
2022-07-29T02:04:49.246Z,19.74
2022-07-29T02:07:20.268Z,19.70
2022-07-29T02:09:48.916Z,19.74
2022-07-29T02:12:18.657Z,19.62
2022-07-29T02:14:48.779Z,19.57
2022-07-29T02:17:22.658Z,19.53
2022-07-29T02:19:50.864Z,19.66
2022-07-29T02:22:20.654Z,19.43
2022-07-29T02:24:49.787Z,19.38
2022-07-29T02:27:18.294Z,19.22
2022-07-29T02:29:47.603Z,19.20
2022-07-29T02:32:15.703Z,19.23
2022-07-29T02:34:43.836Z,19.23
2022-07-29T02:37:12.199Z,19.14
2022-07-29T02:39:42.007Z,19.08
2022-07-29T02:42:12.537Z,19.16
2022-07-29T02:44:39.399Z,19.18
2022-07-29T02:47:14.538Z,19.38
2022-07-29T02:49:53.666Z,19.23
2022-07-29T02:52:28.579Z,19.29
2022-07-29T02:55:03.174Z,19.36
2022-07-29T02:57:54.061Z,19.41
2022-07-29T03:00:24.741Z,19.41
2022-07-29T03:02:54.796Z,19.34
2022-07-29T03:05:23.426Z,19.15
2022-07-29T03:07:56.803Z,19.09
2022-07-29T03:10:24.489Z,19.19
2022-07-29T03:12:51.548Z,19.14
2022-07-29T03:15:19.177Z,19.16
2022-07-29T03:17:47.222Z,19.22
2022-07-29T03:20:14.383Z,19.11
2022-07-29T03:22:47.613Z,19.15
2022-07-29T03:25:16.288Z,19.01
2022-07-29T03:27:43.781Z,18.91
2022-07-29T03:30:11.662Z,19.04
2022-07-29T03:32:39.220Z,18.98
2022-07-29T03:35:07.453Z,18.91
2022-07-29T03:37:34.513Z,18.85
2022-07-29T03:40:03.921Z,18.87
2022-07-29T03:42:34.500Z,18.81
2022-07-29T03:45:08.267Z,18.95
2022-07-29T03:47:49.904Z,19.09
2022-07-29T03:50:20.277Z,19.05
2022-07-29T03:52:47.662Z,19.11
2022-07-29T03:55:15.145Z,19.22
2022-07-29T03:57:42.725Z,19.23
2022-07-29T04:00:10.453Z,19.35
2022-07-29T04:02:38.994Z,19.23
2022-07-29T04:05:05.819Z,19.29
2022-07-29T04:07:32.497Z,19.31
2022-07-29T04:09:59.094Z,19.39
2022-07-29T04:12:25.815Z,19.26
2022-07-29T04:14:52.326Z,19.22
2022-07-29T04:17:18.849Z,19.29
2022-07-29T04:19:45.352Z,19.34
2022-07-29T04:22:11.868Z,19.31
2022-07-29T04:24:38.542Z,19.23
2022-07-29T04:27:05.136Z,19.12
2022-07-29T04:29:31.620Z,19.19
2022-07-29T04:31:58.096Z,19.25
2022-07-29T04:34:28.211Z,19.28
2022-07-29T04:36:54.991Z,19.25
2022-07-29T04:39:23.224Z,19.23
2022-07-29T04:41:51.163Z,19.29
2022-07-29T04:44:19.774Z,19.32
2022-07-29T04:46:46.688Z,19.22
2022-07-29T04:49:14.163Z,19.28
2022-07-29T04:51:40.959Z,19.32
2022-07-29T04:54:07.500Z,19.42
2022-07-29T04:56:34.009Z,19.26
2022-07-29T04:59:00.466Z,19.38
2022-07-29T05:01:27.007Z,19.36
2022-07-29T05:03:57.109Z,19.41
2022-07-29T05:06:26.811Z,19.42
2022-07-29T05:08:53.331Z,19.36
2022-07-29T05:11:22.475Z,19.47
2022-07-29T05:13:50.579Z,19.43
2022-07-29T05:16:17.105Z,19.52
2022-07-29T05:18:43.623Z,19.62
2022-07-29T05:21:10.248Z,19.56
2022-07-29T05:23:36.729Z,19.56
2022-07-29T05:26:03.386Z,19.66
2022-07-29T05:28:30.050Z,19.71
2022-07-29T05:30:57.249Z,19.74
2022-07-29T05:33:34.969Z,19.76
2022-07-29T05:36:03.000Z,19.80
2022-07-29T05:38:29.705Z,19.69
2022-07-29T05:40:58.562Z,19.73
2022-07-29T05:43:25.472Z,19.76
2022-07-29T05:45:52.069Z,19.77
2022-07-29T05:48:18.758Z,19.83
2022-07-29T05:50:45.357Z,19.87
2022-07-29T05:53:19.059Z,19.84
2022-07-29T05:55:47.388Z,19.91
2022-07-29T05:58:13.982Z,20.07
2022-07-29T06:00:40.987Z,20.25
2022-07-29T06:03:10.820Z,20.31
2022-07-29T06:05:37.684Z,20.55
2022-07-29T06:08:07.967Z,20.53
2022-07-29T06:10:37.499Z,20.61
2022-07-29T06:13:04.106Z,20.62
2022-07-29T06:15:30.623Z,20.63
2022-07-29T06:18:00.578Z,20.59
2022-07-29T06:20:32.857Z,20.72
2022-07-29T06:23:00.160Z,20.63
2022-07-29T06:25:28.342Z,20.79
2022-07-29T06:27:54.949Z,20.73
2022-07-29T06:33:36.061Z,21.00
2022-07-29T06:36:05.194Z,20.83
2022-07-29T06:38:34.321Z,20.89
2022-07-29T06:41:13.166Z,20.94
2022-07-29T06:43:42.649Z,20.96
2022-07-29T06:46:19.743Z,20.99
2022-07-29T06:48:48.381Z,20.94
2022-07-29T06:51:15.505Z,20.51
2022-07-29T06:53:58.213Z,20.56
2022-07-29T06:56:27.386Z,20.65
2022-07-29T06:58:53.926Z,20.86
2022-07-29T07:01:20.971Z,20.80
2022-07-29T07:03:48.591Z,20.76
2022-07-29T07:06:15.395Z,20.56
2022-07-29T07:08:42.047Z,20.53
2022-07-29T07:11:09.224Z,20.66
2022-07-29T07:13:36.619Z,20.69
2022-07-29T07:16:04.271Z,20.72
2022-07-29T07:18:31.243Z,20.71
2022-07-29T07:20:58.623Z,20.63
2022-07-29T07:23:25.747Z,20.56
2022-07-29T07:25:52.672Z,20.36
2022-07-29T07:28:19.662Z,19.91
2022-07-29T07:30:51.840Z,19.36
2022-07-29T07:33:18.546Z,19.53
2022-07-29T07:35:45.439Z,19.32
2022-07-29T07:38:12.043Z,19.35
2022-07-29T07:40:38.579Z,19.25
2022-07-29T07:43:05.402Z,19.31
2022-07-29T07:45:33.987Z,19.19
2022-07-29T07:48:01.549Z,19.50
2022-07-29T07:50:28.326Z,19.83
2022-07-29T07:52:59.802Z,19.91
2022-07-29T07:55:27.364Z,19.95
2022-07-29T07:57:54.717Z,20.14
2022-07-29T08:00:23.601Z,20.29
2022-07-29T08:02:51.064Z,20.00
2022-07-29T08:05:18.771Z,20.04
2022-07-29T08:07:48.695Z,20.13
2022-07-29T08:10:36.726Z,20.29
2022-07-29T08:13:07.754Z,20.18
2022-07-29T08:15:34.572Z,20.18
2022-07-29T08:18:07.911Z,20.07
2022-07-29T08:20:36.543Z,20.14
2022-07-29T08:23:03.958Z,20.08
2022-07-29T08:25:30.631Z,19.77
2022-07-29T08:27:57.480Z,19.56
2022-07-29T08:30:24.079Z,19.53
2022-07-29T08:32:55.082Z,19.45
2022-07-29T08:35:23.369Z,19.49
2022-07-29T08:37:50.062Z,19.62
2022-07-29T08:40:16.623Z,19.78
2022-07-29T08:42:43.183Z,19.85
2022-07-29T08:45:10.259Z,19.81
2022-07-29T08:47:40.912Z,19.97
2022-07-29T08:50:09.097Z,20.21
2022-07-29T08:52:40.851Z,20.39
2022-07-29T08:55:09.723Z,20.61
2022-07-29T08:57:37.106Z,20.66
2022-07-29T09:00:11.688Z,20.80
2022-07-29T09:02:46.809Z,20.92
2022-07-29T09:05:15.076Z,20.83
2022-07-29T09:07:44.209Z,20.90
2022-07-29T09:10:11.100Z,20.87
2022-07-29T09:12:38.273Z,20.83
2022-07-29T09:15:05.471Z,20.99
2022-07-29T09:17:46.277Z,20.52
2022-07-29T09:20:15.353Z,20.28
2022-07-29T09:22:42.444Z,20.24
2022-07-29T09:25:09.578Z,20.18
2022-07-29T09:27:36.608Z,20.29
2022-07-29T09:30:13.364Z,20.59
2022-07-29T09:33:02.240Z,20.36
2022-07-29T09:35:29.582Z,20.59
2022-07-29T09:37:56.773Z,20.46
2022-07-29T09:40:28.810Z,20.21
2022-07-29T09:42:58.617Z,20.26
2022-07-29T09:45:35.194Z,20.63
2022-07-29T09:48:19.507Z,20.92
2022-07-29T09:50:49.320Z,21.13
2022-07-29T09:53:31.319Z,21.60
2022-07-29T09:55:58.065Z,21.99
2022-07-29T09:58:24.640Z,21.81
2022-07-29T10:00:52.888Z,21.20
2022-07-29T10:03:20.279Z,20.45
2022-07-29T10:05:47.597Z,20.61
2022-07-29T10:08:14.199Z,21.23
2022-07-29T10:10:43.085Z,20.99
2022-07-29T10:13:16.202Z,21.48
2022-07-29T10:15:46.773Z,21.30
2022-07-29T10:18:15.082Z,21.65
2022-07-29T10:20:42.310Z,21.60
2022-07-29T10:23:10.050Z,21.24
2022-07-29T10:25:36.581Z,21.26
2022-07-29T10:28:03.797Z,21.48
2022-07-29T10:30:30.521Z,21.61
2022-07-29T10:33:27.193Z,21.57
2022-07-29T10:36:09.584Z,21.81
2022-07-29T10:38:53.386Z,21.77
2022-07-29T10:41:27.260Z,22.06
2022-07-29T10:44:00.686Z,21.98
2022-07-29T10:46:28.810Z,21.82
2022-07-29T10:49:17.238Z,21.60
2022-07-29T10:51:58.791Z,21.65
2022-07-29T10:54:42.548Z,21.99
2022-07-29T10:57:17.674Z,22.20
2022-07-29T10:59:46.589Z,22.83
2022-07-29T11:02:46.562Z,23.07
2022-07-29T11:05:14.683Z,22.30
2022-07-29T11:08:19.918Z,22.71
2022-07-29T11:10:48.583Z,23.16
2022-07-29T11:13:44.648Z,25.15
2022-07-29T11:16:16.017Z,26.63
2022-07-29T11:19:14.251Z,27.63
2022-07-29T11:21:54.953Z,28.21
2022-07-29T11:24:31.853Z,27.73
2022-07-29T11:27:17.981Z,26.18
2022-07-29T11:29:57.342Z,26.91
2022-07-29T11:32:29.340Z,25.71
2022-07-29T11:35:19.017Z,25.33
2022-07-29T11:40:34.054Z,28.03
2022-07-29T11:43:00.611Z,27.89
2022-07-29T11:45:45.602Z,27.72
2022-07-29T11:48:29.493Z,27.44
2022-07-29T11:50:59.533Z,27.18
2022-07-29T11:53:29.136Z,27.88
2022-07-29T11:56:00.418Z,27.32
2022-07-29T11:58:28.343Z,27.39
2022-07-29T12:00:56.323Z,27.28
2022-07-29T12:06:17.928Z,27.07
2022-07-29T12:07:03.269Z,26.25
2022-07-29T12:09:08.086Z,27.00
2022-07-29T12:11:41.017Z,27.65
2022-07-29T12:14:07.474Z,27.83
2022-07-29T12:16:38.252Z,28.13
2022-07-29T12:19:05.872Z,28.29
2022-07-29T12:21:53.645Z,27.15
2022-07-29T12:24:23.363Z,26.80
2022-07-29T12:26:54.774Z,26.22
2022-07-29T12:29:34.844Z,27.30
2022-07-29T12:32:05.225Z,27.49
2022-07-29T12:34:33.223Z,27.62
2022-07-29T12:36:59.956Z,28.54
2022-07-29T12:39:28.935Z,29.62
2022-07-29T12:42:04.464Z,28.91
2022-07-29T12:44:48.912Z,28.67
2022-07-29T12:47:16.894Z,27.93
2022-07-29T12:49:43.515Z,27.69
2022-07-29T12:52:33.270Z,27.90
2022-07-29T12:55:00.732Z,28.64
2022-07-29T12:57:28.223Z,29.74
2022-07-29T13:00:12.040Z,30.14
2022-07-29T13:02:39.422Z,30.10
2022-07-29T13:05:07.385Z,28.56
2022-07-29T13:07:54.951Z,28.30
2022-07-29T13:10:24.334Z,27.37
2022-07-29T13:13:08.985Z,28.00
2022-07-29T13:15:36.312Z,28.75
2022-07-29T13:18:03.187Z,29.42
2022-07-29T13:20:33.055Z,28.65
2022-07-29T13:23:02.870Z,29.05
2022-07-29T13:25:32.792Z,29.39
2022-07-29T13:28:00.761Z,29.45
2022-07-29T13:30:27.369Z,29.47
2022-07-29T13:32:53.970Z,28.82
2022-07-29T13:35:21.382Z,28.71
2022-07-29T13:37:48.139Z,28.78
2022-07-29T13:40:15.158Z,28.50
2022-07-29T13:42:42.281Z,29.30
2022-07-29T13:45:10.506Z,28.87
2022-07-29T13:47:37.380Z,27.28
2022-07-29T13:50:06.446Z,27.03
2022-07-29T13:52:34.358Z,28.43
2022-07-29T13:55:00.973Z,29.56
2022-07-29T13:57:28.165Z,29.18
2022-07-29T13:59:54.759Z,29.18
2022-07-29T14:02:21.565Z,29.02
2022-07-29T14:04:53.074Z,28.89
2022-07-29T14:07:19.616Z,28.77
2022-07-29T14:09:46.224Z,28.57
2022-07-29T14:12:12.917Z,29.12
2022-07-29T14:14:39.596Z,28.40
2022-07-29T14:17:07.614Z,28.06
2022-07-29T14:19:38.979Z,27.89
2022-07-29T14:22:07.278Z,28.20
2022-07-29T14:24:37.380Z,28.74
2022-07-29T14:27:05.509Z,29.45
2022-07-29T14:29:37.331Z,28.74
2022-07-29T14:32:06.860Z,28.96
2022-07-29T14:34:34.334Z,29.18
2022-07-29T14:37:00.821Z,29.78
2022-07-29T14:39:31.707Z,29.74
2022-07-29T14:41:59.183Z,30.15
2022-07-29T14:44:31.793Z,30.42
2022-07-29T14:47:01.540Z,30.23
2022-07-29T14:49:34.422Z,30.07
2022-07-29T14:52:01.299Z,30.59
2022-07-29T14:54:28.067Z,30.73
2022-07-29T14:56:57.803Z,30.62
2022-07-29T14:59:24.549Z,31.00
2022-07-29T15:01:51.138Z,31.10
2022-07-29T15:04:17.771Z,30.56
2022-07-29T15:06:44.771Z,28.09
2022-07-29T15:09:11.521Z,28.34
2022-07-29T15:11:38.788Z,29.51
2022-07-29T15:14:06.656Z,28.84
2022-07-29T15:16:33.622Z,28.14
2022-07-29T15:19:01.210Z,28.60
2022-07-29T15:21:28.226Z,28.81
2022-07-29T15:23:54.831Z,27.75
2022-07-29T15:26:21.385Z,28.77
2022-07-29T15:28:49.166Z,28.88
2022-07-29T15:31:16.164Z,28.44
2022-07-29T15:33:42.783Z,27.28
2022-07-29T15:36:09.575Z,28.08
2022-07-29T15:38:36.261Z,28.30
2022-07-29T15:41:08.719Z,27.76
2022-07-29T15:43:36.211Z,27.42
2022-07-29T15:46:21.565Z,26.82
2022-07-29T15:48:48.458Z,27.27
2022-07-29T15:51:15.374Z,27.72
2022-07-29T15:53:42.001Z,27.46
2022-07-29T15:56:08.572Z,27.28
2022-07-29T15:58:35.182Z,28.03
2022-07-29T16:01:02.123Z,28.61
2022-07-29T16:03:29.991Z,28.30
2022-07-29T16:05:57.205Z,28.33
2022-07-29T16:08:23.750Z,28.57
2022-07-29T16:10:50.383Z,28.99
2022-07-29T16:13:18.985Z,29.02
2022-07-29T16:16:02.607Z,28.33
2022-07-29T16:18:30.490Z,28.54
2022-07-29T16:20:57.239Z,28.75
2022-07-29T16:23:24.691Z,28.78
2022-07-29T16:25:59.707Z,28.72
2022-07-29T16:28:27.019Z,28.21
2022-07-29T16:30:53.530Z,27.66
2022-07-29T16:33:20.023Z,27.88
2022-07-29T16:35:46.921Z,27.34
2022-07-29T16:38:13.498Z,27.31
2022-07-29T16:40:40.115Z,27.83
2022-07-29T16:43:06.760Z,27.32
2022-07-29T16:45:45.063Z,26.82
2022-07-29T16:48:14.275Z,26.72
2022-07-29T16:50:41.468Z,26.73
2022-07-29T16:53:10.730Z,27.08
2022-07-29T16:55:37.416Z,27.65
2022-07-29T16:58:04.092Z,28.10
2022-07-29T17:00:30.908Z,27.96
2022-07-29T17:02:57.529Z,27.83
2022-07-29T17:05:24.246Z,28.12
2022-07-29T17:07:50.839Z,28.61
2022-07-29T17:10:17.566Z,28.61
2022-07-29T17:12:45.167Z,28.34
2022-07-29T17:15:12.841Z,28.13
2022-07-29T17:17:55.493Z,28.03
2022-07-29T17:20:23.457Z,28.00
2022-07-29T17:22:50.063Z,27.90
2022-07-29T17:25:20.312Z,27.94
2022-07-29T17:27:49.725Z,27.81
2022-07-29T17:30:16.893Z,27.86
2022-07-29T17:32:43.477Z,27.73
2022-07-29T17:35:29.152Z,27.66
2022-07-29T17:37:55.830Z,27.51
2022-07-29T17:40:22.793Z,27.39
2022-07-29T17:42:49.739Z,27.69
2022-07-29T17:45:16.404Z,27.71
2022-07-29T17:47:42.926Z,27.55
2022-07-29T17:50:10.124Z,27.54
2022-07-29T17:52:37.696Z,27.38
2022-07-29T17:58:36.369Z,27.37
2022-07-29T18:01:03.813Z,27.18
2022-07-29T18:03:30.357Z,27.04
2022-07-29T18:05:56.920Z,26.79
2022-07-29T18:08:28.053Z,26.24
2022-07-29T18:10:54.944Z,26.08
2022-07-29T18:13:21.714Z,25.91
2022-07-29T18:15:48.569Z,25.50
2022-07-29T18:18:16.069Z,25.31
2022-07-29T18:20:43.416Z,25.29
2022-07-29T18:23:10.419Z,25.24
2022-07-29T18:25:37.454Z,25.22
2022-07-29T18:28:04.358Z,25.13
2022-07-29T18:30:33.801Z,25.06
2022-07-29T18:33:20.907Z,25.00
2022-07-29T18:35:49.770Z,24.85
2022-07-29T18:38:19.314Z,24.71
2022-07-29T18:40:46.355Z,24.75
2022-07-29T18:43:13.675Z,24.69
2022-07-29T18:45:40.358Z,24.65
2022-07-29T18:48:12.999Z,24.62
2022-07-29T18:50:40.900Z,24.44
2022-07-29T18:53:08.023Z,24.42
2022-07-29T18:55:34.659Z,24.37
2022-07-29T18:58:01.501Z,24.34
2022-07-29T19:00:28.212Z,24.25
2022-07-29T19:02:55.620Z,24.21
2022-07-29T19:05:23.236Z,24.20
2022-07-29T19:07:49.839Z,24.09
2022-07-29T19:10:16.811Z,24.07
2022-07-29T19:12:43.414Z,23.98
2022-07-29T19:15:10.790Z,23.94
2022-07-29T19:17:38.639Z,23.86
2022-07-29T19:20:06.430Z,23.76
2022-07-29T19:22:34.114Z,23.73
2022-07-29T19:25:00.826Z,23.65
2022-07-29T19:27:27.391Z,23.62
2022-07-29T19:29:55.844Z,23.42
2022-07-29T19:32:26.029Z,23.32
2022-07-29T19:35:11.807Z,23.31
2022-07-29T19:37:38.309Z,23.45
2022-07-29T19:40:06.188Z,23.35
2022-07-29T19:42:33.185Z,23.46
2022-07-29T19:44:59.992Z,23.35
2022-07-29T19:47:26.703Z,23.28
2022-07-29T19:49:53.378Z,23.21
2022-07-29T19:52:20.021Z,23.15
2022-07-29T19:54:49.135Z,23.02
2022-07-29T19:57:15.625Z,22.73
2022-07-29T19:59:42.232Z,22.59
2022-07-29T20:02:12.142Z,22.56
2022-07-29T20:04:39.486Z,22.47
2022-07-29T20:07:06.936Z,22.25
2022-07-29T20:09:33.741Z,22.02
2022-07-29T20:12:00.605Z,22.10
2022-07-29T20:14:27.169Z,22.33
2022-07-29T20:16:56.206Z,21.98
2022-07-29T20:19:22.751Z,21.82
2022-07-29T20:21:50.730Z,21.88
2022-07-29T20:24:18.534Z,21.96
2022-07-29T20:26:45.012Z,21.82
2022-07-29T20:29:11.562Z,21.83
2022-07-29T20:31:38.182Z,21.96
2022-07-29T20:34:04.785Z,22.02
2022-07-29T20:36:31.550Z,22.05
2022-07-29T20:38:59.964Z,22.13
2022-07-29T20:41:27.092Z,22.02
2022-07-29T20:43:53.587Z,21.99
2022-07-29T20:46:20.085Z,22.08
2022-07-29T20:48:47.254Z,21.96
2022-07-29T20:51:14.489Z,22.19
2022-07-29T20:53:41.879Z,21.86
2022-07-29T20:56:08.583Z,21.68
2022-07-29T20:58:36.281Z,21.61
2022-07-29T21:01:03.939Z,21.74
2022-07-29T21:03:30.585Z,21.69
2022-07-29T21:05:57.132Z,21.61
2022-07-29T21:08:23.629Z,21.48
2022-07-29T21:10:50.422Z,21.48
2022-07-29T21:13:17.059Z,21.40
2022-07-29T21:15:46.289Z,21.42
2022-07-29T21:18:30.698Z,21.52
2022-07-29T21:21:02.503Z,21.52
2022-07-29T21:23:30.053Z,21.52
2022-07-29T21:25:57.460Z,21.67
2022-07-29T21:28:26.904Z,21.57
2022-07-29T21:30:54.746Z,21.61
2022-07-29T21:33:21.520Z,21.65
2022-07-29T21:38:35.428Z,21.68
2022-07-29T21:41:02.535Z,21.77
2022-07-29T21:43:29.215Z,21.86
2022-07-29T21:45:57.185Z,21.83
2022-07-29T21:48:25.110Z,21.99
2022-07-29T21:50:52.154Z,21.92
2022-07-29T21:53:21.967Z,21.89
2022-07-29T21:55:53.650Z,21.69
2022-07-29T21:58:22.792Z,21.72
2022-07-29T22:00:49.350Z,21.52
2022-07-29T22:03:16.208Z,21.51
2022-07-29T22:05:42.891Z,21.42
2022-07-29T22:08:09.550Z,21.38
2022-07-29T22:10:36.183Z,21.44
2022-07-29T22:13:03.266Z,21.35
2022-07-29T22:15:30.571Z,21.34
2022-07-29T22:17:58.777Z,21.21
2022-07-29T22:20:25.664Z,21.40
2022-07-29T22:22:52.343Z,21.38
2022-07-29T22:25:19.508Z,21.48
2022-07-29T22:27:46.464Z,21.57
2022-07-29T22:30:13.954Z,21.50
2022-07-29T22:32:40.762Z,21.48
2022-07-29T22:35:07.651Z,21.41
2022-07-29T22:37:34.309Z,21.23
2022-07-29T22:40:00.922Z,21.17
2022-07-29T22:42:27.507Z,21.30
2022-07-29T22:44:54.139Z,21.35
2022-07-29T22:47:45.963Z,21.28
2022-07-29T22:50:07.601Z,21.16
2022-07-29T22:52:34.106Z,20.89
2022-07-29T22:55:00.828Z,20.82
2022-07-29T22:57:27.389Z,20.92
2022-07-29T22:59:53.986Z,20.68
2022-07-29T23:02:20.564Z,20.61
2022-07-29T23:04:47.495Z,20.68
2022-07-29T23:07:13.975Z,20.42
2022-07-29T23:09:40.574Z,20.26
2022-07-29T23:12:07.428Z,20.17
2022-07-29T23:14:34.066Z,20.07
2022-07-29T23:17:00.846Z,19.94
2022-07-29T23:19:27.627Z,19.76
2022-07-29T23:21:54.129Z,19.74
2022-07-29T23:24:20.758Z,19.83
2022-07-29T23:26:48.336Z,19.77
2022-07-29T23:29:14.829Z,19.70
2022-07-29T23:31:41.792Z,19.62
2022-07-29T23:34:09.284Z,19.59
2022-07-29T23:36:35.883Z,19.62
2022-07-29T23:39:02.644Z,19.52
2022-07-29T23:41:30.558Z,19.43
2022-07-29T23:44:03.514Z,19.59
2022-07-29T23:46:30.161Z,19.49
2022-07-29T23:48:56.866Z,19.46
2022-07-29T23:51:23.423Z,19.32
2022-07-29T23:53:53.958Z,19.22
